sensor_id;sensor_type;location;lat;lon;timestamp;temperature;humidity
78345;DHT22;67620;51.134;6.548;2024-02-21T00:01:24;8.80;80.20
78345;DHT22;67620;51.134;6.548;2024-02-21T00:03:50;8.80;80.40
78345;DHT22;67620;51.134;6.548;2024-02-21T00:06:16;8.80;80.60
78345;DHT22;67620;51.134;6.548;2024-02-21T00:08:41;8.80;80.80
78345;DHT22;67620;51.134;6.548;2024-02-21T00:11:07;8.80;80.80
78345;DHT22;67620;51.134;6.548;2024-02-21T00:13:32;8.80;80.80
78345;DHT22;67620;51.134;6.548;2024-02-21T00:16:00;8.80;80.60
78345;DHT22;67620;51.134;6.548;2024-02-21T00:18:26;8.80;80.70
78345;DHT22;67620;51.134;6.548;2024-02-21T00:20:51;8.80;81.10
78345;DHT22;67620;51.134;6.548;2024-02-21T00:23:17;8.80;80.90
78345;DHT22;67620;51.134;6.548;2024-02-21T00:25:42;8.80;81.00
78345;DHT22;67620;51.134;6.548;2024-02-21T00:28:08;8.80;81.10
78345;DHT22;67620;51.134;6.548;2024-02-21T00:30:34;8.80;81.10
78345;DHT22;67620;51.134;6.548;2024-02-21T00:32:59;8.70;81.00
78345;DHT22;67620;51.134;6.548;2024-02-21T00:35:25;8.80;81.30
78345;DHT22;67620;51.134;6.548;2024-02-21T00:37:51;8.70;81.40
78345;DHT22;67620;51.134;6.548;2024-02-21T00:40:17;8.70;81.30
78345;DHT22;67620;51.134;6.548;2024-02-21T00:42:46;8.70;81.40
78345;DHT22;67620;51.134;6.548;2024-02-21T00:45:11;8.70;81.70
78345;DHT22;67620;51.134;6.548;2024-02-21T00:47:37;8.70;81.90
78345;DHT22;67620;51.134;6.548;2024-02-21T00:50:03;8.70;81.70
78345;DHT22;67620;51.134;6.548;2024-02-21T00:52:28;8.70;81.70
78345;DHT22;67620;51.134;6.548;2024-02-21T00:54:54;8.70;81.60
78345;DHT22;67620;51.134;6.548;2024-02-21T00:57:20;8.70;81.50
78345;DHT22;67620;51.134;6.548;2024-02-21T00:59:45;8.70;81.90
78345;DHT22;67620;51.134;6.548;2024-02-21T01:02:11;8.70;81.60
78345;DHT22;67620;51.134;6.548;2024-02-21T01:04:36;8.70;81.20
78345;DHT22;67620;51.134;6.548;2024-02-21T01:07:02;8.70;81.60
78345;DHT22;67620;51.134;6.548;2024-02-21T01:09:27;8.70;81.80
78345;DHT22;67620;51.134;6.548;2024-02-21T01:11:53;8.70;81.60
78345;DHT22;67620;51.134;6.548;2024-02-21T01:14:19;8.70;81.50
78345;DHT22;67620;51.134;6.548;2024-02-21T01:16:44;8.80;81.10
78345;DHT22;67620;51.134;6.548;2024-02-21T01:19:10;8.70;81.30
78345;DHT22;67620;51.134;6.548;2024-02-21T01:21:35;8.70;81.70
78345;DHT22;67620;51.134;6.548;2024-02-21T01:24:01;8.70;81.60
78345;DHT22;67620;51.134;6.548;2024-02-21T01:26:26;8.70;81.40
78345;DHT22;67620;51.134;6.548;2024-02-21T01:28:52;8.70;81.60
78345;DHT22;67620;51.134;6.548;2024-02-21T01:31:18;8.70;81.40
78345;DHT22;67620;51.134;6.548;2024-02-21T01:33:43;8.70;81.40
78345;DHT22;67620;51.134;6.548;2024-02-21T01:36:09;8.70;81.70
78345;DHT22;67620;51.134;6.548;2024-02-21T01:38:35;8.70;81.20
78345;DHT22;67620;51.134;6.548;2024-02-21T01:41:00;8.80;81.30
78345;DHT22;67620;51.134;6.548;2024-02-21T01:43:26;8.80;80.70
78345;DHT22;67620;51.134;6.548;2024-02-21T01:45:55;8.80;80.70
78345;DHT22;67620;51.134;6.548;2024-02-21T01:48:25;8.90;80.40
78345;DHT22;67620;51.134;6.548;2024-02-21T01:50:51;8.80;80.40
78345;DHT22;67620;51.134;6.548;2024-02-21T01:53:20;8.80;80.70
78345;DHT22;67620;51.134;6.548;2024-02-21T01:55:47;8.80;80.70
78345;DHT22;67620;51.134;6.548;2024-02-21T01:58:14;8.80;80.80
78345;DHT22;67620;51.134;6.548;2024-02-21T02:00:42;8.80;81.10
78345;DHT22;67620;51.134;6.548;2024-02-21T02:03:12;8.80;80.60
78345;DHT22;67620;51.134;6.548;2024-02-21T02:05:46;8.80;80.90
78345;DHT22;67620;51.134;6.548;2024-02-21T02:08:17;8.70;80.80
78345;DHT22;67620;51.134;6.548;2024-02-21T02:10:43;8.70;81.00
78345;DHT22;67620;51.134;6.548;2024-02-21T02:13:09;8.70;81.20
78345;DHT22;67620;51.134;6.548;2024-02-21T02:15:48;8.70;80.80
78345;DHT22;67620;51.134;6.548;2024-02-21T02:18:16;8.80;80.70
78345;DHT22;67620;51.134;6.548;2024-02-21T02:20:42;8.70;80.70
78345;DHT22;67620;51.134;6.548;2024-02-21T02:23:47;8.70;81.00
78345;DHT22;67620;51.134;6.548;2024-02-21T02:26:05;8.70;80.70
78345;DHT22;67620;51.134;6.548;2024-02-21T02:28:32;8.80;80.60
78345;DHT22;67620;51.134;6.548;2024-02-21T02:30:58;8.80;80.40
78345;DHT22;67620;51.134;6.548;2024-02-21T02:33:24;8.70;80.50
78345;DHT22;67620;51.134;6.548;2024-02-21T02:35:49;8.70;80.70
78345;DHT22;67620;51.134;6.548;2024-02-21T02:38:15;8.70;80.70
78345;DHT22;67620;51.134;6.548;2024-02-21T02:40:41;8.70;80.80
78345;DHT22;67620;51.134;6.548;2024-02-21T02:43:07;8.60;80.70
78345;DHT22;67620;51.134;6.548;2024-02-21T02:45:33;8.60;80.70
78345;DHT22;67620;51.134;6.548;2024-02-21T02:47:59;8.60;80.40
78345;DHT22;67620;51.134;6.548;2024-02-21T02:50:25;8.60;80.60
78345;DHT22;67620;51.134;6.548;2024-02-21T02:52:51;8.60;81.20
78345;DHT22;67620;51.134;6.548;2024-02-21T02:55:17;8.60;80.90
78345;DHT22;67620;51.134;6.548;2024-02-21T02:57:42;8.60;81.10
78345;DHT22;67620;51.134;6.548;2024-02-21T03:00:12;8.60;80.70
78345;DHT22;67620;51.134;6.548;2024-02-21T03:02:39;8.60;80.60
78345;DHT22;67620;51.134;6.548;2024-02-21T03:05:16;8.60;81.10
78345;DHT22;67620;51.134;6.548;2024-02-21T03:07:42;8.60;81.10
78345;DHT22;67620;51.134;6.548;2024-02-21T03:10:09;8.60;81.30
78345;DHT22;67620;51.134;6.548;2024-02-21T03:12:35;8.60;81.70
78345;DHT22;67620;51.134;6.548;2024-02-21T03:15:01;8.60;81.30
78345;DHT22;67620;51.134;6.548;2024-02-21T03:17:26;8.60;81.40
78345;DHT22;67620;51.134;6.548;2024-02-21T03:19:53;8.60;81.10
78345;DHT22;67620;51.134;6.548;2024-02-21T03:22:19;8.60;81.10
78345;DHT22;67620;51.134;6.548;2024-02-21T03:24:44;8.60;80.90
78345;DHT22;67620;51.134;6.548;2024-02-21T03:27:10;8.60;81.10
78345;DHT22;67620;51.134;6.548;2024-02-21T03:29:36;8.60;80.80
78345;DHT22;67620;51.134;6.548;2024-02-21T03:32:01;8.60;80.70
78345;DHT22;67620;51.134;6.548;2024-02-21T03:34:27;8.50;81.70
78345;DHT22;67620;51.134;6.548;2024-02-21T03:36:52;8.60;81.80
78345;DHT22;67620;51.134;6.548;2024-02-21T03:39:18;8.60;81.10
78345;DHT22;67620;51.134;6.548;2024-02-21T03:41:44;8.50;81.50
78345;DHT22;67620;51.134;6.548;2024-02-21T03:44:09;8.50;81.70
78345;DHT22;67620;51.134;6.548;2024-02-21T03:46:35;8.60;81.40
78345;DHT22;67620;51.134;6.548;2024-02-21T03:49:00;8.50;81.40
78345;DHT22;67620;51.134;6.548;2024-02-21T03:51:26;8.60;81.30
78345;DHT22;67620;51.134;6.548;2024-02-21T03:53:52;8.50;81.40
78345;DHT22;67620;51.134;6.548;2024-02-21T03:56:17;8.50;81.80
78345;DHT22;67620;51.134;6.548;2024-02-21T03:58:43;8.50;81.80
78345;DHT22;67620;51.134;6.548;2024-02-21T04:01:09;8.60;81.50
78345;DHT22;67620;51.134;6.548;2024-02-21T04:03:34;8.50;81.70
78345;DHT22;67620;51.134;6.548;2024-02-21T04:06:00;8.60;81.60
78345;DHT22;67620;51.134;6.548;2024-02-21T04:08:25;8.60;81.50
78345;DHT22;67620;51.134;6.548;2024-02-21T04:10:51;8.60;81.30
78345;DHT22;67620;51.134;6.548;2024-02-21T04:13:16;8.60;81.60
78345;DHT22;67620;51.134;6.548;2024-02-21T04:15:42;8.50;81.20
78345;DHT22;67620;51.134;6.548;2024-02-21T04:18:08;8.60;81.50
78345;DHT22;67620;51.134;6.548;2024-02-21T04:20:34;8.60;81.20
78345;DHT22;67620;51.134;6.548;2024-02-21T04:23:00;8.60;81.10
78345;DHT22;67620;51.134;6.548;2024-02-21T04:25:25;8.60;81.00
78345;DHT22;67620;51.134;6.548;2024-02-21T04:27:51;8.60;81.10
78345;DHT22;67620;51.134;6.548;2024-02-21T04:30:17;8.60;80.70
78345;DHT22;67620;51.134;6.548;2024-02-21T04:32:43;8.60;80.70
78345;DHT22;67620;51.134;6.548;2024-02-21T04:35:09;8.60;80.80
78345;DHT22;67620;51.134;6.548;2024-02-21T04:37:34;8.60;81.10
78345;DHT22;67620;51.134;6.548;2024-02-21T04:40:00;8.70;80.40
78345;DHT22;67620;51.134;6.548;2024-02-21T04:42:26;8.70;80.40
78345;DHT22;67620;51.134;6.548;2024-02-21T04:44:51;8.60;80.10
78345;DHT22;67620;51.134;6.548;2024-02-21T04:47:17;8.60;80.40
78345;DHT22;67620;51.134;6.548;2024-02-21T04:49:44;8.60;80.50
78345;DHT22;67620;51.134;6.548;2024-02-21T04:52:10;8.60;80.20
78345;DHT22;67620;51.134;6.548;2024-02-21T04:54:35;8.60;80.30
78345;DHT22;67620;51.134;6.548;2024-02-21T04:57:02;8.60;80.40
78345;DHT22;67620;51.134;6.548;2024-02-21T04:59:28;8.60;80.40
78345;DHT22;67620;51.134;6.548;2024-02-21T05:01:54;8.50;80.60
78345;DHT22;67620;51.134;6.548;2024-02-21T05:04:20;8.50;80.60
78345;DHT22;67620;51.134;6.548;2024-02-21T05:06:46;8.50;80.70
78345;DHT22;67620;51.134;6.548;2024-02-21T05:09:12;8.50;80.70
78345;DHT22;67620;51.134;6.548;2024-02-21T05:11:38;8.50;80.60
78345;DHT22;67620;51.134;6.548;2024-02-21T05:14:04;8.50;80.70
78345;DHT22;67620;51.134;6.548;2024-02-21T05:16:31;8.50;80.70
78345;DHT22;67620;51.134;6.548;2024-02-21T05:18:56;8.50;80.80
78345;DHT22;67620;51.134;6.548;2024-02-21T05:21:23;8.50;80.40
78345;DHT22;67620;51.134;6.548;2024-02-21T05:23:53;8.50;80.40
78345;DHT22;67620;51.134;6.548;2024-02-21T05:26:24;8.50;80.50
78345;DHT22;67620;51.134;6.548;2024-02-21T05:28:49;8.50;80.30
78345;DHT22;67620;51.134;6.548;2024-02-21T05:31:17;8.60;79.80
78345;DHT22;67620;51.134;6.548;2024-02-21T05:33:44;8.60;79.80
78345;DHT22;67620;51.134;6.548;2024-02-21T05:36:09;8.60;79.50
78345;DHT22;67620;51.134;6.548;2024-02-21T05:38:35;8.60;79.70
78345;DHT22;67620;51.134;6.548;2024-02-21T05:41:01;8.60;79.70
78345;DHT22;67620;51.134;6.548;2024-02-21T05:43:26;8.60;79.10
78345;DHT22;67620;51.134;6.548;2024-02-21T05:45:52;8.50;79.40
78345;DHT22;67620;51.134;6.548;2024-02-21T05:48:17;8.60;79.10
78345;DHT22;67620;51.134;6.548;2024-02-21T05:50:43;8.60;79.00
78345;DHT22;67620;51.134;6.548;2024-02-21T05:53:08;8.60;79.20
78345;DHT22;67620;51.134;6.548;2024-02-21T05:55:35;8.60;79.00
78345;DHT22;67620;51.134;6.548;2024-02-21T05:58:01;8.60;79.10
78345;DHT22;67620;51.134;6.548;2024-02-21T06:00:27;8.60;79.10
78345;DHT22;67620;51.134;6.548;2024-02-21T06:02:53;8.70;78.90
78345;DHT22;67620;51.134;6.548;2024-02-21T06:05:19;8.60;78.90
78345;DHT22;67620;51.134;6.548;2024-02-21T06:07:44;8.70;78.90
78345;DHT22;67620;51.134;6.548;2024-02-21T06:10:10;8.50;79.00
78345;DHT22;67620;51.134;6.548;2024-02-21T06:12:35;8.60;78.90
78345;DHT22;67620;51.134;6.548;2024-02-21T06:15:01;8.60;79.20
78345;DHT22;67620;51.134;6.548;2024-02-21T06:17:27;8.60;78.80
78345;DHT22;67620;51.134;6.548;2024-02-21T06:19:52;8.60;78.70
78345;DHT22;67620;51.134;6.548;2024-02-21T06:22:18;8.70;78.90
78345;DHT22;67620;51.134;6.548;2024-02-21T06:24:43;8.70;78.60
78345;DHT22;67620;51.134;6.548;2024-02-21T06:27:11;8.70;78.40
78345;DHT22;67620;51.134;6.548;2024-02-21T06:29:37;8.70;78.20
78345;DHT22;67620;51.134;6.548;2024-02-21T06:32:03;8.60;78.10
78345;DHT22;67620;51.134;6.548;2024-02-21T06:34:28;8.70;78.40
78345;DHT22;67620;51.134;6.548;2024-02-21T06:36:54;8.70;78.30
78345;DHT22;67620;51.134;6.548;2024-02-21T06:39:19;8.60;78.30
78345;DHT22;67620;51.134;6.548;2024-02-21T06:41:45;8.70;78.10
78345;DHT22;67620;51.134;6.548;2024-02-21T06:44:12;8.70;77.90
78345;DHT22;67620;51.134;6.548;2024-02-21T06:46:37;8.70;77.80
78345;DHT22;67620;51.134;6.548;2024-02-21T06:49:03;8.70;78.20
78345;DHT22;67620;51.134;6.548;2024-02-21T06:51:29;8.60;78.10
78345;DHT22;67620;51.134;6.548;2024-02-21T06:53:55;8.50;78.20
78345;DHT22;67620;51.134;6.548;2024-02-21T06:56:23;8.50;78.60
78345;DHT22;67620;51.134;6.548;2024-02-21T06:58:57;8.50;78.80
78345;DHT22;67620;51.134;6.548;2024-02-21T07:01:23;8.50;79.00
78345;DHT22;67620;51.134;6.548;2024-02-21T07:03:49;8.50;78.90
78345;DHT22;67620;51.134;6.548;2024-02-21T07:06:14;8.60;78.70
78345;DHT22;67620;51.134;6.548;2024-02-21T07:08:40;8.50;79.10
78345;DHT22;67620;51.134;6.548;2024-02-21T07:11:06;8.50;79.30
78345;DHT22;67620;51.134;6.548;2024-02-21T07:13:32;8.50;79.80
78345;DHT22;67620;51.134;6.548;2024-02-21T07:15:58;8.50;80.40
78345;DHT22;67620;51.134;6.548;2024-02-21T07:18:23;8.40;80.80
78345;DHT22;67620;51.134;6.548;2024-02-21T07:20:51;8.40;81.50
78345;DHT22;67620;51.134;6.548;2024-02-21T07:23:17;8.40;81.60
78345;DHT22;67620;51.134;6.548;2024-02-21T07:25:42;8.40;81.80
78345;DHT22;67620;51.134;6.548;2024-02-21T07:28:08;8.40;81.70
78345;DHT22;67620;51.134;6.548;2024-02-21T07:30:34;8.50;81.90
78345;DHT22;67620;51.134;6.548;2024-02-21T07:32:59;8.40;80.70
78345;DHT22;67620;51.134;6.548;2024-02-21T07:35:25;8.30;80.10
78345;DHT22;67620;51.134;6.548;2024-02-21T07:37:50;8.40;80.10
78345;DHT22;67620;51.134;6.548;2024-02-21T07:40:16;8.40;79.40
78345;DHT22;67620;51.134;6.548;2024-02-21T07:42:43;8.40;79.00
78345;DHT22;67620;51.134;6.548;2024-02-21T07:45:09;8.40;78.60
78345;DHT22;67620;51.134;6.548;2024-02-21T07:47:36;8.30;78.40
78345;DHT22;67620;51.134;6.548;2024-02-21T07:50:02;8.30;78.80
78345;DHT22;67620;51.134;6.548;2024-02-21T07:52:28;8.30;78.40
78345;DHT22;67620;51.134;6.548;2024-02-21T07:54:53;8.40;78.30
78345;DHT22;67620;51.134;6.548;2024-02-21T07:57:19;8.40;78.20
78345;DHT22;67620;51.134;6.548;2024-02-21T07:59:45;8.30;78.10
78345;DHT22;67620;51.134;6.548;2024-02-21T08:02:15;8.40;77.90
78345;DHT22;67620;51.134;6.548;2024-02-21T08:04:41;8.40;78.20
78345;DHT22;67620;51.134;6.548;2024-02-21T08:07:07;8.40;78.00
78345;DHT22;67620;51.134;6.548;2024-02-21T08:09:33;8.40;77.90
78345;DHT22;67620;51.134;6.548;2024-02-21T08:11:58;8.30;78.80
78345;DHT22;67620;51.134;6.548;2024-02-21T08:14:24;8.40;77.90
78345;DHT22;67620;51.134;6.548;2024-02-21T08:16:52;8.40;78.00
78345;DHT22;67620;51.134;6.548;2024-02-21T08:19:21;8.40;78.00
78345;DHT22;67620;51.134;6.548;2024-02-21T08:21:47;8.40;77.80
78345;DHT22;67620;51.134;6.548;2024-02-21T08:24:14;8.50;77.60
78345;DHT22;67620;51.134;6.548;2024-02-21T08:26:43;8.50;77.10
78345;DHT22;67620;51.134;6.548;2024-02-21T08:29:11;8.50;76.40
78345;DHT22;67620;51.134;6.548;2024-02-21T08:31:37;8.50;76.10
78345;DHT22;67620;51.134;6.548;2024-02-21T08:34:02;8.50;75.00
78345;DHT22;67620;51.134;6.548;2024-02-21T08:36:33;8.60;74.50
78345;DHT22;67620;51.134;6.548;2024-02-21T08:38:59;8.60;74.30
78345;DHT22;67620;51.134;6.548;2024-02-21T08:41:25;8.50;74.20
78345;DHT22;67620;51.134;6.548;2024-02-21T08:43:52;8.60;74.20
78345;DHT22;67620;51.134;6.548;2024-02-21T08:46:19;8.60;74.10
78345;DHT22;67620;51.134;6.548;2024-02-21T08:48:46;8.60;73.30
78345;DHT22;67620;51.134;6.548;2024-02-21T08:51:12;8.60;73.70
78345;DHT22;67620;51.134;6.548;2024-02-21T08:53:38;8.70;73.40
78345;DHT22;67620;51.134;6.548;2024-02-21T08:56:04;8.80;74.10
78345;DHT22;67620;51.134;6.548;2024-02-21T08:58:29;8.80;73.30
78345;DHT22;67620;51.134;6.548;2024-02-21T09:00:55;8.90;73.30
78345;DHT22;67620;51.134;6.548;2024-02-21T09:03:22;8.90;73.30
78345;DHT22;67620;51.134;6.548;2024-02-21T09:05:47;8.90;73.80
78345;DHT22;67620;51.134;6.548;2024-02-21T09:08:13;8.90;73.90
78345;DHT22;67620;51.134;6.548;2024-02-21T09:10:41;8.80;73.80
78345;DHT22;67620;51.134;6.548;2024-02-21T09:13:07;8.90;74.20
78345;DHT22;67620;51.134;6.548;2024-02-21T09:15:34;8.90;74.10
78345;DHT22;67620;51.134;6.548;2024-02-21T09:17:59;8.90;73.70
78345;DHT22;67620;51.134;6.548;2024-02-21T09:20:25;8.80;73.30
78345;DHT22;67620;51.134;6.548;2024-02-21T09:22:50;8.80;73.10
78345;DHT22;67620;51.134;6.548;2024-02-21T09:25:17;8.90;73.20
78345;DHT22;67620;51.134;6.548;2024-02-21T09:27:44;8.90;73.10
78345;DHT22;67620;51.134;6.548;2024-02-21T09:30:10;8.90;73.40
78345;DHT22;67620;51.134;6.548;2024-02-21T09:32:37;8.90;72.60
78345;DHT22;67620;51.134;6.548;2024-02-21T09:35:03;8.90;73.00
78345;DHT22;67620;51.134;6.548;2024-02-21T09:37:28;8.90;72.80
78345;DHT22;67620;51.134;6.548;2024-02-21T09:39:54;9.00;72.50
78345;DHT22;67620;51.134;6.548;2024-02-21T09:42:39;9.00;71.90
78345;DHT22;67620;51.134;6.548;2024-02-21T09:45:13;9.00;71.60
78345;DHT22;67620;51.134;6.548;2024-02-21T09:50:47;9.00;71.80
78345;DHT22;67620;51.134;6.548;2024-02-21T09:53:14;9.10;71.90
78345;DHT22;67620;51.134;6.548;2024-02-21T09:55:40;9.10;72.00
78345;DHT22;67620;51.134;6.548;2024-02-21T09:58:07;9.20;71.30
78345;DHT22;67620;51.134;6.548;2024-02-21T10:00:35;9.20;71.50
78345;DHT22;67620;51.134;6.548;2024-02-21T10:03:01;9.20;71.70
78345;DHT22;67620;51.134;6.548;2024-02-21T10:05:28;9.20;71.50
78345;DHT22;67620;51.134;6.548;2024-02-21T10:07:55;9.30;71.90
78345;DHT22;67620;51.134;6.548;2024-02-21T10:10:20;9.40;71.90
78345;DHT22;67620;51.134;6.548;2024-02-21T10:12:50;9.30;71.30
78345;DHT22;67620;51.134;6.548;2024-02-21T10:15:20;9.30;71.70
78345;DHT22;67620;51.134;6.548;2024-02-21T10:17:47;9.30;71.10
78345;DHT22;67620;51.134;6.548;2024-02-21T10:20:12;9.30;71.30
78345;DHT22;67620;51.134;6.548;2024-02-21T10:22:39;9.50;71.60
78345;DHT22;67620;51.134;6.548;2024-02-21T10:25:12;9.50;71.10
78345;DHT22;67620;51.134;6.548;2024-02-21T10:27:38;9.50;70.70
78345;DHT22;67620;51.134;6.548;2024-02-21T10:30:06;9.50;70.60
78345;DHT22;67620;51.134;6.548;2024-02-21T10:32:32;9.50;70.90
78345;DHT22;67620;51.134;6.548;2024-02-21T10:35:03;9.50;70.30
78345;DHT22;67620;51.134;6.548;2024-02-21T10:37:30;9.50;71.50
78345;DHT22;67620;51.134;6.548;2024-02-21T10:39:56;9.60;71.10
78345;DHT22;67620;51.134;6.548;2024-02-21T10:42:22;9.50;70.80
78345;DHT22;67620;51.134;6.548;2024-02-21T10:44:51;9.60;71.40
78345;DHT22;67620;51.134;6.548;2024-02-21T10:47:19;9.60;70.50
78345;DHT22;67620;51.134;6.548;2024-02-21T10:49:54;9.60;70.90
78345;DHT22;67620;51.134;6.548;2024-02-21T10:52:56;9.80;70.70
78345;DHT22;67620;51.134;6.548;2024-02-21T10:55:33;9.90;70.00
78345;DHT22;67620;51.134;6.548;2024-02-21T10:58:04;10.10;69.60
78345;DHT22;67620;51.134;6.548;2024-02-21T11:00:30;10.00;69.30
78345;DHT22;67620;51.134;6.548;2024-02-21T11:02:57;10.00;69.10
78345;DHT22;67620;51.134;6.548;2024-02-21T11:05:24;10.10;69.30
78345;DHT22;67620;51.134;6.548;2024-02-21T11:07:51;10.30;68.90
78345;DHT22;67620;51.134;6.548;2024-02-21T11:10:24;10.30;68.30
78345;DHT22;67620;51.134;6.548;2024-02-21T11:13:14;10.50;68.20
78345;DHT22;67620;51.134;6.548;2024-02-21T11:15:39;10.50;66.70
78345;DHT22;67620;51.134;6.548;2024-02-21T11:18:05;10.50;67.40
78345;DHT22;67620;51.134;6.548;2024-02-21T11:20:35;10.60;67.50
78345;DHT22;67620;51.134;6.548;2024-02-21T11:23:01;10.60;67.80
78345;DHT22;67620;51.134;6.548;2024-02-21T11:25:27;10.60;68.00
78345;DHT22;67620;51.134;6.548;2024-02-21T11:28:04;10.50;67.90
78345;DHT22;67620;51.134;6.548;2024-02-21T11:30:30;10.40;67.90
78345;DHT22;67620;51.134;6.548;2024-02-21T11:33:03;10.20;68.00
78345;DHT22;67620;51.134;6.548;2024-02-21T11:35:33;10.20;69.00
78345;DHT22;67620;51.134;6.548;2024-02-21T11:38:13;10.20;69.20
78345;DHT22;67620;51.134;6.548;2024-02-21T11:40:44;10.20;68.80
78345;DHT22;67620;51.134;6.548;2024-02-21T11:43:10;10.30;67.80
78345;DHT22;67620;51.134;6.548;2024-02-21T11:45:36;10.20;69.80
78345;DHT22;67620;51.134;6.548;2024-02-21T11:48:02;10.20;68.90
78345;DHT22;67620;51.134;6.548;2024-02-21T11:50:29;10.20;69.90
78345;DHT22;67620;51.134;6.548;2024-02-21T11:52:56;10.20;69.20
78345;DHT22;67620;51.134;6.548;2024-02-21T11:55:22;10.30;68.70
78345;DHT22;67620;51.134;6.548;2024-02-21T11:57:48;10.20;69.30
78345;DHT22;67620;51.134;6.548;2024-02-21T12:00:15;10.30;68.10
78345;DHT22;67620;51.134;6.548;2024-02-21T12:02:41;10.40;67.70
78345;DHT22;67620;51.134;6.548;2024-02-21T12:05:07;10.30;67.80
78345;DHT22;67620;51.134;6.548;2024-02-21T12:07:33;10.40;68.40
78345;DHT22;67620;51.134;6.548;2024-02-21T12:09:59;10.30;67.50
78345;DHT22;67620;51.134;6.548;2024-02-21T12:12:25;10.50;67.50
78345;DHT22;67620;51.134;6.548;2024-02-21T12:14:57;10.60;68.10
78345;DHT22;67620;51.134;6.548;2024-02-21T12:17:26;10.50;66.70
78345;DHT22;67620;51.134;6.548;2024-02-21T12:19:51;10.60;66.20
78345;DHT22;67620;51.134;6.548;2024-02-21T12:22:18;10.60;67.10
78345;DHT22;67620;51.134;6.548;2024-02-21T12:24:44;10.70;67.70
78345;DHT22;67620;51.134;6.548;2024-02-21T12:27:13;10.80;65.70
78345;DHT22;67620;51.134;6.548;2024-02-21T12:29:39;11.00;65.50
78345;DHT22;67620;51.134;6.548;2024-02-21T12:32:05;11.10;65.60
78345;DHT22;67620;51.134;6.548;2024-02-21T12:34:30;11.20;64.00
78345;DHT22;67620;51.134;6.548;2024-02-21T12:36:59;11.30;64.60
78345;DHT22;67620;51.134;6.548;2024-02-21T12:39:24;11.30;63.90
78345;DHT22;67620;51.134;6.548;2024-02-21T12:41:53;11.40;64.30
78345;DHT22;67620;51.134;6.548;2024-02-21T12:44:19;11.50;64.60
78345;DHT22;67620;51.134;6.548;2024-02-21T12:46:45;11.30;63.90
78345;DHT22;67620;51.134;6.548;2024-02-21T12:49:10;11.50;64.60
78345;DHT22;67620;51.134;6.548;2024-02-21T12:51:36;11.60;65.00
78345;DHT22;67620;51.134;6.548;2024-02-21T12:54:03;11.40;64.80
78345;DHT22;67620;51.134;6.548;2024-02-21T12:56:29;11.50;64.80
78345;DHT22;67620;51.134;6.548;2024-02-21T12:58:57;11.70;64.40
78345;DHT22;67620;51.134;6.548;2024-02-21T13:01:22;11.60;64.50
78345;DHT22;67620;51.134;6.548;2024-02-21T13:03:48;11.70;64.70
78345;DHT22;67620;51.134;6.548;2024-02-21T13:06:13;11.60;64.80
78345;DHT22;67620;51.134;6.548;2024-02-21T13:08:39;11.80;63.90
78345;DHT22;67620;51.134;6.548;2024-02-21T13:11:06;11.90;63.20
78345;DHT22;67620;51.134;6.548;2024-02-21T13:13:31;11.90;63.40
78345;DHT22;67620;51.134;6.548;2024-02-21T13:15:57;11.90;63.90
78345;DHT22;67620;51.134;6.548;2024-02-21T13:18:23;12.00;63.00
78345;DHT22;67620;51.134;6.548;2024-02-21T13:20:49;12.00;63.10
78345;DHT22;67620;51.134;6.548;2024-02-21T13:23:14;12.00;63.30
78345;DHT22;67620;51.134;6.548;2024-02-21T13:25:40;12.10;63.10
78345;DHT22;67620;51.134;6.548;2024-02-21T13:28:05;12.00;62.90
78345;DHT22;67620;51.134;6.548;2024-02-21T13:30:32;12.00;63.30
78345;DHT22;67620;51.134;6.548;2024-02-21T13:32:57;12.10;63.50
78345;DHT22;67620;51.134;6.548;2024-02-21T13:35:23;12.00;63.40
78345;DHT22;67620;51.134;6.548;2024-02-21T13:37:49;11.80;63.90
78345;DHT22;67620;51.134;6.548;2024-02-21T13:40:15;11.80;64.60
78345;DHT22;67620;51.134;6.548;2024-02-21T13:42:42;11.80;64.90
78345;DHT22;67620;51.134;6.548;2024-02-21T13:45:08;11.70;64.40
78345;DHT22;67620;51.134;6.548;2024-02-21T13:47:34;11.50;65.60
78345;DHT22;67620;51.134;6.548;2024-02-21T13:50:02;11.50;65.90
78345;DHT22;67620;51.134;6.548;2024-02-21T13:52:30;11.50;65.00
78345;DHT22;67620;51.134;6.548;2024-02-21T13:54:56;11.50;65.00
78345;DHT22;67620;51.134;6.548;2024-02-21T13:57:21;11.50;64.40
78345;DHT22;67620;51.134;6.548;2024-02-21T13:59:47;11.40;64.60
78345;DHT22;67620;51.134;6.548;2024-02-21T14:02:12;11.50;65.70
78345;DHT22;67620;51.134;6.548;2024-02-21T14:04:38;11.50;64.70
78345;DHT22;67620;51.134;6.548;2024-02-21T14:07:04;11.50;65.40
78345;DHT22;67620;51.134;6.548;2024-02-21T14:09:30;11.50;64.60
78345;DHT22;67620;51.134;6.548;2024-02-21T14:11:56;11.50;64.70
78345;DHT22;67620;51.134;6.548;2024-02-21T14:14:21;11.50;64.60
78345;DHT22;67620;51.134;6.548;2024-02-21T14:16:47;11.60;64.60
78345;DHT22;67620;51.134;6.548;2024-02-21T14:19:16;11.60;64.80
78345;DHT22;67620;51.134;6.548;2024-02-21T14:21:42;11.60;65.60
78345;DHT22;67620;51.134;6.548;2024-02-21T14:24:07;11.70;64.90
78345;DHT22;67620;51.134;6.548;2024-02-21T14:26:33;11.70;64.40
78345;DHT22;67620;51.134;6.548;2024-02-21T14:29:01;11.70;65.10
78345;DHT22;67620;51.134;6.548;2024-02-21T14:31:31;11.70;65.10
78345;DHT22;67620;51.134;6.548;2024-02-21T14:33:56;11.70;64.70
78345;DHT22;67620;51.134;6.548;2024-02-21T14:36:22;11.70;65.30
78345;DHT22;67620;51.134;6.548;2024-02-21T14:38:49;11.70;63.10
78345;DHT22;67620;51.134;6.548;2024-02-21T14:41:15;11.60;64.50
78345;DHT22;67620;51.134;6.548;2024-02-21T14:43:40;11.70;64.70
78345;DHT22;67620;51.134;6.548;2024-02-21T14:46:06;11.70;62.10
78345;DHT22;67620;51.134;6.548;2024-02-21T14:48:32;11.60;61.50
78345;DHT22;67620;51.134;6.548;2024-02-21T14:50:58;11.60;61.10
78345;DHT22;67620;51.134;6.548;2024-02-21T14:53:24;11.60;59.30
78345;DHT22;67620;51.134;6.548;2024-02-21T14:55:50;11.60;59.60
78345;DHT22;67620;51.134;6.548;2024-02-21T14:58:16;11.60;59.70
78345;DHT22;67620;51.134;6.548;2024-02-21T15:00:43;11.60;61.50
78345;DHT22;67620;51.134;6.548;2024-02-21T15:03:09;11.60;63.40
78345;DHT22;67620;51.134;6.548;2024-02-21T15:05:36;11.60;62.60
78345;DHT22;67620;51.134;6.548;2024-02-21T15:08:03;11.50;63.90
78345;DHT22;67620;51.134;6.548;2024-02-21T15:10:28;11.50;64.80
78345;DHT22;67620;51.134;6.548;2024-02-21T15:12:54;11.50;65.90
78345;DHT22;67620;51.134;6.548;2024-02-21T15:15:20;11.40;65.80
78345;DHT22;67620;51.134;6.548;2024-02-21T15:17:45;11.40;65.60
78345;DHT22;67620;51.134;6.548;2024-02-21T15:20:11;11.40;63.90
78345;DHT22;67620;51.134;6.548;2024-02-21T15:22:37;11.40;62.60
78345;DHT22;67620;51.134;6.548;2024-02-21T15:25:04;11.40;61.00
78345;DHT22;67620;51.134;6.548;2024-02-21T15:27:33;11.40;59.40
78345;DHT22;67620;51.134;6.548;2024-02-21T15:29:59;11.30;59.30
78345;DHT22;67620;51.134;6.548;2024-02-21T15:32:26;11.30;59.90
78345;DHT22;67620;51.134;6.548;2024-02-21T15:34:53;11.30;58.10
78345;DHT22;67620;51.134;6.548;2024-02-21T15:37:18;11.30;59.00
78345;DHT22;67620;51.134;6.548;2024-02-21T15:39:45;11.30;59.20
78345;DHT22;67620;51.134;6.548;2024-02-21T15:42:10;11.30;58.70